Historique des mesures à Cassis (13260), France
Quotidien Résumé Novembre 26, 2017 Unités:  Métrique    US   Métrique/US
« Précédent (Jour)
Suivant (Jour) »
Quotidien Hebdomadaire Mensuel Annuel Période au choix
  Maximum: Minimum: Moyenne:
Température: TemperatureC °C 6.6 °C 7.7 °C
Point de rosée: DewpointC °C -3.5 °C -2.1 °C
Humidité: Humidity % 42 % 47 %
Vitesse du vent: 0 km/h 0 km/h 35.6 km/h
Rafales: 0 km/h - -
Vent:- - South
Pression: PressurehPa hPa 1014.1 hPa -
Précipitations: 0.5 mm    
Historical Graphs
 
 
Mesures pour : Novembre 26, 2017
Heure Temperature Point de rosée Pression Vent Vitesse du vent Rafales Humidité Pluie (par heure) Conditions
TemperatureC °C DewpointC °C PressurehPa hPa Calm     Humidity % HourlyPrecipMM mm SoftwareType W/m2
00:11 8.8 °C -2.3 °C 1014.1 hPa NNW 51.5 km/h 77.7 km/h 46 % 0.0 mm open2300-1.11 W/m2
01:10 8.3 °C -2.1 °C 1014.8 hPa NW 49.7 km/h 57.9 km/h 48 % 0.0 mm open2300-1.11 W/m2
02:11 7.8 °C -1.7 °C 1015.5 hPa NNW 38.8 km/h 46.8 km/h 51 % 0.0 mm open2300-1.11 W/m2
03:10 7.3 °C -1.2 °C 1015.8 hPa NNE 37 km/h 56.6 km/h 55 % 0.5 mm open2300-1.11 W/m2
04:11 7.1 °C -1.9 °C 1015.5 hPa North 30.7 km/h 83.4 km/h 53 % 0.0 mm open2300-1.11 W/m2
05:10 6.9 °C -2.1 °C 1016.5 hPa NNE 46.8 km/h 46.8 km/h 53 % 0.0 mm open2300-1.11 W/m2
06:11 6.7 °C -2.2 °C 1016.8 hPa NW 44.1 km/h 44.1 km/h 53 % 0.0 mm open2300-1.11 W/m2
08:11 6.6 °C -1.3 °C 1017.5 hPa NNW 36.5 km/h 47.3 km/h 57 % 0.0 mm open2300-1.11 W/m2
09:10 6.9 °C -1.1 °C 1018.2 hPa North 25.4 km/h 53.9 km/h 57 % 0.0 mm open2300-1.11 W/m2
10:11 7.6 °C -1.7 °C 1018.8 hPa North 24.3 km/h 34.8 km/h 52 % 0.0 mm open2300-1.11 W/m2
11:10 8.5 °C -1.7 °C 1019.9 hPa NW 47.3 km/h 47.3 km/h 49 % 0.0 mm open2300-1.11 W/m2
12:11 9.1 °C -2.0 °C 1018.5 hPa NNE 30.1 km/h 35.2 km/h 46 % 0.0 mm open2300-1.11 W/m2
13:10 9.5 °C -1.9 °C 1018.5 hPa NNW 51 km/h 51 km/h 45 % 0.0 mm open2300-1.11 W/m2
14:11 9.5 °C -1.9 °C 1018.2 hPa North 19.2 km/h 54.4 km/h 45 % 0.0 mm open2300-1.11 W/m2
15:10 9.6 °C -2.8 °C 1017.8 hPa NNW 37 km/h 48.6 km/h 42 % 0.0 mm open2300-1.11 W/m2
16:11 9.1 °C -2.0 °C 1018.5 hPa NW 53.3 km/h 57.9 km/h 46 % 0.0 mm open2300-1.11 W/m2
17:10 8.6 °C -3.1 °C 1019.2 hPa NW 59.1 km/h 59.1 km/h 44 % 0.0 mm open2300-1.11 W/m2
18:11 8.2 °C -2.8 °C 1018.2 hPa NNW 40.7 km/h 51.5 km/h 46 % 0.0 mm open2300-1.11 W/m2
19:10 8.2 °C -3.1 °C 1019.2 hPa North 37 km/h 77.1 km/h 45 % 0.0 mm open2300-1.11 W/m2
20:11 8.1 °C -3.5 °C 1019.9 hPa NNE 33.6 km/h 37 km/h 44 % 0.0 mm open2300-1.11 W/m2
21:10 7.6 °C -2.4 °C 1021.2 hPa NW 25.4 km/h 49.2 km/h 49 % 0.0 mm open2300-1.11 W/m2
22:11 7.1 °C -2.3 °C 1021.6 hPa North 34.1 km/h 37 km/h 51 % 0.0 mm open2300-1.11 W/m2
23:10 7.1 °C -2.3 °C 1022.2 hPa Calm   22 km/h 51 % 0.0 mm open2300-1.11 W/m2
Observations météo à CASSIS
WU-History script by Weather Underground - 1 mb